sensor_id;sensor_type;location;lat;lon;timestamp;temperature;humidity
28069;DHT22;15382;47.578;8.086;2023-04-15T00:01:38;3.00;99.90
28069;DHT22;15382;47.578;8.086;2023-04-15T00:11:39;3.00;99.90
28069;DHT22;15382;47.578;8.086;2023-04-15T00:21:39;3.30;99.90
28069;DHT22;15382;47.578;8.086;2023-04-15T00:31:40;3.70;99.90
28069;DHT22;15382;47.578;8.086;2023-04-15T00:41:42;3.70;99.90
28069;DHT22;15382;47.578;8.086;2023-04-15T00:51:43;3.90;99.90
28069;DHT22;15382;47.578;8.086;2023-04-15T01:01:44;3.80;99.90
28069;DHT22;15382;47.578;8.086;2023-04-15T01:11:45;3.90;99.90
28069;DHT22;15382;47.578;8.086;2023-04-15T01:21:46;4.00;99.90
28069;DHT22;15382;47.578;8.086;2023-04-15T01:31:54;4.10;99.90
28069;DHT22;15382;47.578;8.086;2023-04-15T01:41:56;4.00;99.90
28069;DHT22;15382;47.578;8.086;2023-04-15T01:51:58;4.10;99.90
28069;DHT22;15382;47.578;8.086;2023-04-15T02:01:58;4.30;99.90
28069;DHT22;15382;47.578;8.086;2023-04-15T02:12:01;4.20;99.90
28069;DHT22;15382;47.578;8.086;2023-04-15T02:22:02;4.30;99.90
28069;DHT22;15382;47.578;8.086;2023-04-15T02:32:03;4.40;99.90
28069;DHT22;15382;47.578;8.086;2023-04-15T02:42:04;4.20;99.90
28069;DHT22;15382;47.578;8.086;2023-04-15T02:52:06;4.20;99.90
28069;DHT22;15382;47.578;8.086;2023-04-15T03:02:07;4.20;99.90
28069;DHT22;15382;47.578;8.086;2023-04-15T03:12:08;4.30;99.90
28069;DHT22;15382;47.578;8.086;2023-04-15T03:22:09;4.30;99.90
28069;DHT22;15382;47.578;8.086;2023-04-15T03:32:09;4.10;99.90
28069;DHT22;15382;47.578;8.086;2023-04-15T03:42:11;4.20;99.90
28069;DHT22;15382;47.578;8.086;2023-04-15T03:52:12;4.30;99.90
28069;DHT22;15382;47.578;8.086;2023-04-15T04:02:13;4.30;99.90
28069;DHT22;15382;47.578;8.086;2023-04-15T04:12:14;4.30;99.90
28069;DHT22;15382;47.578;8.086;2023-04-15T04:22:15;4.30;99.90
28069;DHT22;15382;47.578;8.086;2023-04-15T04:32:16;4.30;99.90
28069;DHT22;15382;47.578;8.086;2023-04-15T04:42:16;4.50;99.90
28069;DHT22;15382;47.578;8.086;2023-04-15T04:52:17;4.40;99.90
28069;DHT22;15382;47.578;8.086;2023-04-15T05:02:18;4.20;99.90
28069;DHT22;15382;47.578;8.086;2023-04-15T05:12:19;4.30;99.90
28069;DHT22;15382;47.578;8.086;2023-04-15T05:22:20;4.30;99.90
28069;DHT22;15382;47.578;8.086;2023-04-15T05:32:21;4.40;99.90
28069;DHT22;15382;47.578;8.086;2023-04-15T05:42:22;4.50;99.90
28069;DHT22;15382;47.578;8.086;2023-04-15T05:52:22;4.60;99.90
28069;DHT22;15382;47.578;8.086;2023-04-15T06:02:24;4.70;99.90
28069;DHT22;15382;47.578;8.086;2023-04-15T06:12:24;4.70;99.90
28069;DHT22;15382;47.578;8.086;2023-04-15T06:22:25;4.70;99.90
28069;DHT22;15382;47.578;8.086;2023-04-15T06:32:26;4.80;99.90
28069;DHT22;15382;47.578;8.086;2023-04-15T06:42:27;4.90;99.90
28069;DHT22;15382;47.578;8.086;2023-04-15T06:52:27;5.30;99.90
28069;DHT22;15382;47.578;8.086;2023-04-15T07:02:28;5.60;99.90
28069;DHT22;15382;47.578;8.086;2023-04-15T07:12:29;5.70;99.90
28069;DHT22;15382;47.578;8.086;2023-04-15T07:22:30;6.00;99.90
28069;DHT22;15382;47.578;8.086;2023-04-15T07:32:32;6.50;99.90
28069;DHT22;15382;47.578;8.086;2023-04-15T07:42:33;6.70;99.90
28069;DHT22;15382;47.578;8.086;2023-04-15T07:52:34;7.00;99.90
28069;DHT22;15382;47.578;8.086;2023-04-15T08:02:39;7.50;99.90
28069;DHT22;15382;47.578;8.086;2023-04-15T08:12:39;8.30;99.90
28069;DHT22;15382;47.578;8.086;2023-04-15T08:22:41;9.10;99.90
28069;DHT22;15382;47.578;8.086;2023-04-15T08:32:44;9.70;99.90
28069;DHT22;15382;47.578;8.086;2023-04-15T08:42:48;9.90;99.90
28069;DHT22;15382;47.578;8.086;2023-04-15T08:52:54;9.80;99.90
28069;DHT22;15382;47.578;8.086;2023-04-15T09:02:55;9.80;99.90
28069;DHT22;15382;47.578;8.086;2023-04-15T09:12:58;9.80;99.90
28069;DHT22;15382;47.578;8.086;2023-04-15T09:22:59;9.80;99.90
28069;DHT22;15382;47.578;8.086;2023-04-15T09:33:01;9.80;99.90
28069;DHT22;15382;47.578;8.086;2023-04-15T09:43:05;9.50;99.90
28069;DHT22;15382;47.578;8.086;2023-04-15T09:53:15;9.60;99.90
28069;DHT22;15382;47.578;8.086;2023-04-15T10:13:22;9.80;99.90
28069;DHT22;15382;47.578;8.086;2023-04-15T10:23:23;10.40;99.90
28069;DHT22;15382;47.578;8.086;2023-04-15T10:33:26;10.20;99.90
28069;DHT22;15382;47.578;8.086;2023-04-15T10:43:27;10.00;99.90
28069;DHT22;15382;47.578;8.086;2023-04-15T10:53:28;9.90;99.90
28069;DHT22;15382;47.578;8.086;2023-04-15T11:03:39;10.30;99.90
28069;DHT22;15382;47.578;8.086;2023-04-15T11:13:49;10.40;99.90
28069;DHT22;15382;47.578;8.086;2023-04-15T11:23:50;10.40;99.90
28069;DHT22;15382;47.578;8.086;2023-04-15T11:33:56;10.50;99.90
28069;DHT22;15382;47.578;8.086;2023-04-15T11:43:58;10.80;99.90
28069;DHT22;15382;47.578;8.086;2023-04-15T11:53:59;10.70;99.90
28069;DHT22;15382;47.578;8.086;2023-04-15T12:04:00;10.50;99.90
28069;DHT22;15382;47.578;8.086;2023-04-15T12:14:25;10.50;99.90
28069;DHT22;15382;47.578;8.086;2023-04-15T12:24:26;10.70;99.90
28069;DHT22;15382;47.578;8.086;2023-04-15T12:34:32;10.20;99.90
28069;DHT22;15382;47.578;8.086;2023-04-15T12:44:34;10.30;99.90
28069;DHT22;15382;47.578;8.086;2023-04-15T12:54:35;10.70;99.90
28069;DHT22;15382;47.578;8.086;2023-04-15T13:04:36;11.10;99.90
28069;DHT22;15382;47.578;8.086;2023-04-15T13:14:36;10.90;99.90
28069;DHT22;15382;47.578;8.086;2023-04-15T13:24:37;10.80;99.90
28069;DHT22;15382;47.578;8.086;2023-04-15T13:34:38;10.40;99.90
28069;DHT22;15382;47.578;8.086;2023-04-15T13:44:39;10.60;99.90
28069;DHT22;15382;47.578;8.086;2023-04-15T13:54:40;10.40;99.90
28069;DHT22;15382;47.578;8.086;2023-04-15T14:04:41;10.20;99.90
28069;DHT22;15382;47.578;8.086;2023-04-15T14:14:41;10.00;99.90
28069;DHT22;15382;47.578;8.086;2023-04-15T14:24:42;9.90;99.90
28069;DHT22;15382;47.578;8.086;2023-04-15T14:34:43;9.80;99.90
28069;DHT22;15382;47.578;8.086;2023-04-15T14:44:44;9.80;99.90
28069;DHT22;15382;47.578;8.086;2023-04-15T14:54:45;9.80;99.90
28069;DHT22;15382;47.578;8.086;2023-04-15T15:04:46;9.40;99.90
28069;DHT22;15382;47.578;8.086;2023-04-15T15:14:46;9.40;99.90
28069;DHT22;15382;47.578;8.086;2023-04-15T15:24:47;9.70;99.90
28069;DHT22;15382;47.578;8.086;2023-04-15T15:34:48;9.40;99.90
28069;DHT22;15382;47.578;8.086;2023-04-15T15:44:49;9.00;99.90
28069;DHT22;15382;47.578;8.086;2023-04-15T15:54:52;9.10;99.90
28069;DHT22;15382;47.578;8.086;2023-04-15T16:04:53;9.30;99.90
28069;DHT22;15382;47.578;8.086;2023-04-15T16:14:53;9.40;99.90
28069;DHT22;15382;47.578;8.086;2023-04-15T16:24:54;9.50;99.90
28069;DHT22;15382;47.578;8.086;2023-04-15T16:34:55;10.30;99.90
28069;DHT22;15382;47.578;8.086;2023-04-15T16:44:56;10.20;99.90
28069;DHT22;15382;47.578;8.086;2023-04-15T16:54:56;10.10;99.90
28069;DHT22;15382;47.578;8.086;2023-04-15T17:04:57;10.10;99.90
28069;DHT22;15382;47.578;8.086;2023-04-15T17:14:58;9.90;99.90
28069;DHT22;15382;47.578;8.086;2023-04-15T17:24:59;9.60;99.90
28069;DHT22;15382;47.578;8.086;2023-04-15T17:35:00;9.80;99.90
28069;DHT22;15382;47.578;8.086;2023-04-15T17:45:03;9.90;99.90
28069;DHT22;15382;47.578;8.086;2023-04-15T17:55:05;9.70;99.90
28069;DHT22;15382;47.578;8.086;2023-04-15T18:05:06;9.60;99.90
28069;DHT22;15382;47.578;8.086;2023-04-15T18:15:08;9.40;99.90
28069;DHT22;15382;47.578;8.086;2023-04-15T18:25:09;9.00;99.90
28069;DHT22;15382;47.578;8.086;2023-04-15T18:35:10;8.80;99.90
28069;DHT22;15382;47.578;8.086;2023-04-15T18:45:10;8.70;99.90
28069;DHT22;15382;47.578;8.086;2023-04-15T18:55:11;8.50;99.90
28069;DHT22;15382;47.578;8.086;2023-04-15T19:05:12;8.60;99.90
28069;DHT22;15382;47.578;8.086;2023-04-15T19:15:13;8.50;99.90
28069;DHT22;15382;47.578;8.086;2023-04-15T19:25:14;8.50;99.90
28069;DHT22;15382;47.578;8.086;2023-04-15T19:35:15;8.60;99.90
28069;DHT22;15382;47.578;8.086;2023-04-15T19:45:15;8.60;99.90
28069;DHT22;15382;47.578;8.086;2023-04-15T19:55:16;8.30;99.90
28069;DHT22;15382;47.578;8.086;2023-04-15T20:05:17;8.20;99.90
28069;DHT22;15382;47.578;8.086;2023-04-15T20:15:18;8.20;99.90
28069;DHT22;15382;47.578;8.086;2023-04-15T20:25:19;8.10;99.90
28069;DHT22;15382;47.578;8.086;2023-04-15T20:35:20;8.00;99.90
28069;DHT22;15382;47.578;8.086;2023-04-15T20:45:21;8.00;99.90
28069;DHT22;15382;47.578;8.086;2023-04-15T20:55:22;8.10;99.90
28069;DHT22;15382;47.578;8.086;2023-04-15T21:05:23;8.10;99.90
28069;DHT22;15382;47.578;8.086;2023-04-15T21:15:23;8.20;99.90
28069;DHT22;15382;47.578;8.086;2023-04-15T21:25:24;8.30;99.90
28069;DHT22;15382;47.578;8.086;2023-04-15T21:35:25;8.30;99.90
28069;DHT22;15382;47.578;8.086;2023-04-15T21:45:26;8.30;99.90
28069;DHT22;15382;47.578;8.086;2023-04-15T21:55:27;8.20;99.90
28069;DHT22;15382;47.578;8.086;2023-04-15T22:05:28;8.10;99.90
28069;DHT22;15382;47.578;8.086;2023-04-15T22:15:28;8.10;99.90
28069;DHT22;15382;47.578;8.086;2023-04-15T22:25:30;8.20;99.90
28069;DHT22;15382;47.578;8.086;2023-04-15T22:35:31;8.20;99.90
28069;DHT22;15382;47.578;8.086;2023-04-15T22:45:31;8.10;99.90
28069;DHT22;15382;47.578;8.086;2023-04-15T22:55:32;8.20;99.90
28069;DHT22;15382;47.578;8.086;2023-04-15T23:05:33;8.20;99.90
28069;DHT22;15382;47.578;8.086;2023-04-15T23:15:34;8.20;99.90
28069;DHT22;15382;47.578;8.086;2023-04-15T23:25:35;8.20;99.90
28069;DHT22;15382;47.578;8.086;2023-04-15T23:35:36;8.20;99.90
28069;DHT22;15382;47.578;8.086;2023-04-15T23:45:37;8.10;99.90
28069;DHT22;15382;47.578;8.086;2023-04-15T23:55:38;8.00;99.90
